PWSweather.com
Personal Weather Stations
Station Observations
MAKAWAOWX1
Up Country Maui, Makawao, HI 96768

Up Country MauiMakawao, HI 96768

Lat: 20.856944, Lon: -156.3149667

Elevation: 1500

Station Type: Davis Vantage Pro

www.dwayneyamato@hawaiiantel.net

High Low Average
Temperature 87.5°F30.8°C 65.2°F18.4°C 75.2°F24.0°C
Dew Point 73.0°F22.8°C 61.6°F16.4°C 67.8°F19.9°C
Winds 8.2 mph 13.2 kmh Calm Calm 2.0 mph SSE3.2 kmh SSE
Wind Gusts 13.0 mph20.9 kmh -- 3.0 mph4.8 kmh
Humidity 96% 55% 79%
Pressure 29.87 in1011.5 mb 29.76 in1007.8 mb -
Precipitation 0.00 in0.0 mm - -
Hour Temp Dew Point Humidity Winds Wind Gusts Pressure Precip Precip Rate Daily Precip Total
12:00 AM 67.9°F19.9°C 64.9°F18.3°C 90% Calm Calm -- 29.87 in1011.5 mb - 0.00 in0.0 mm 0.00 in0.0 mm
12:10 AM 67.6°F19.8°C 64.6°F18.1°C 90% Calm Calm -- 29.87 in1011.5 mb - 0.00 in0.0 mm 0.00 in0.0 mm
12:20 AM 67.4°F19.7°C 64.4°F18.0°C 90% Calm Calm -- 29.86 in1011.2 mb - 0.00 in0.0 mm 0.00 in0.0 mm
12:30 AM 67.1°F19.5°C 64.1°F17.8°C 90% Calm Calm -- 29.86 in1011.2 mb - 0.00 in0.0 mm 0.00 in0.0 mm
12:40 AM 66.9°F19.4°C 64.2°F17.9°C 91% Calm Calm -- 29.85 in1010.8 mb - 0.00 in0.0 mm 0.00 in0.0 mm
12:50 AM 66.8°F19.3°C 64.1°F17.8°C 91% Calm Calm -- 29.85 in1010.8 mb - 0.00 in0.0 mm 0.00 in0.0 mm
01:00 AM 66.7°F19.3°C 64.0°F17.8°C 91% Calm Calm -- 29.84 in1010.5 mb - 0.00 in0.0 mm 0.00 in0.0 mm
01:10 AM 66.6°F19.2°C 64.2°F17.9°C 92% Calm Calm -- 29.84 in1010.5 mb - 0.00 in0.0 mm 0.00 in0.0 mm
01:20 AM 66.6°F19.2°C 64.2°F17.9°C 92% Calm Calm -- 29.84 in1010.5 mb - 0.00 in0.0 mm 0.00 in0.0 mm
01:30 AM 66.5°F19.2°C 63.8°F17.7°C 91% Calm Calm -- 29.84 in1010.5 mb - 0.00 in0.0 mm 0.00 in0.0 mm
01:40 AM 66.3°F19.1°C 63.5°F17.5°C 91% Calm Calm -- 29.83 in1010.2 mb - 0.00 in0.0 mm 0.00 in0.0 mm
01:50 AM 66.0°F18.9°C 63.0°F17.2°C 90% Calm Calm -- 29.83 in1010.2 mb - 0.00 in0.0 mm 0.00 in0.0 mm
02:00 AM 65.9°F18.8°C 62.9°F17.2°C 90% Calm Calm -- 29.83 in1010.2 mb - 0.00 in0.0 mm 0.00 in0.0 mm
02:10 AM 65.8°F18.8°C 62.7°F17.1°C 90% Calm Calm -- 29.82 in1009.8 mb - 0.00 in0.0 mm 0.00 in0.0 mm
02:20 AM 65.5°F18.6°C 62.2°F16.8°C 89% Calm Calm -- 29.82 in1009.8 mb - 0.00 in0.0 mm 0.00 in0.0 mm
02:30 AM 65.4°F18.6°C 62.1°F16.7°C 89% Calm Calm -- 29.82 in1009.8 mb - 0.00 in0.0 mm 0.00 in0.0 mm
02:40 AM 65.4°F18.6°C 62.1°F16.7°C 89% Calm Calm -- 29.82 in1009.8 mb - 0.00 in0.0 mm 0.00 in0.0 mm
02:50 AM 65.5°F18.6°C 62.2°F16.8°C 89% Calm Calm -- 29.82 in1009.8 mb - 0.00 in0.0 mm 0.00 in0.0 mm
03:00 AM 65.4°F18.6°C 61.8°F16.6°C 88% Calm Calm -- 29.82 in1009.8 mb - 0.00 in0.0 mm 0.00 in0.0 mm
03:10 AM 65.2°F18.4°C 61.6°F16.4°C 88% Calm Calm -- 29.82 in1009.8 mb - 0.00 in0.0 mm 0.00 in0.0 mm
03:20 AM 65.4°F18.6°C 61.7°F16.5°C 88% 0.5 mph WSW0.8 kmh WSW 3.0 mph4.8 kmh 29.82 in1009.8 mb - 0.00 in0.0 mm 0.00 in0.0 mm
03:30 AM 66.0°F18.9°C 62.6°F17.0°C 89% 1.9 mph WSW3.1 kmh WSW 1.0 mph1.6 kmh 29.82 in1009.8 mb - 0.00 in0.0 mm 0.00 in0.0 mm
03:40 AM 66.5°F19.2°C 63.2°F17.3°C 89% 3.7 mph SW6.0 kmh SW 4.0 mph6.4 kmh 29.82 in1009.8 mb - 0.00 in0.0 mm 0.00 in0.0 mm
03:50 AM 66.6°F19.2°C 62.6°F17.0°C 87% Calm Calm -- 29.82 in1009.8 mb - 0.00 in0.0 mm 0.00 in0.0 mm
04:00 AM 66.8°F19.3°C 63.1°F17.3°C 88% Calm Calm -- 29.82 in1009.8 mb - 0.00 in0.0 mm 0.00 in0.0 mm
04:10 AM 66.9°F19.4°C 63.2°F17.3°C 88% Calm Calm -- 29.82 in1009.8 mb - 0.00 in0.0 mm 0.00 in0.0 mm
04:20 AM 67.0°F19.4°C 62.6°F17.0°C 86% Calm Calm -- 29.82 in1009.8 mb - 0.00 in0.0 mm 0.00 in0.0 mm
04:30 AM 66.8°F19.3°C 62.5°F16.9°C 86% Calm Calm 2.0 mph3.2 kmh 29.82 in1009.8 mb - 0.00 in0.0 mm 0.00 in0.0 mm
04:40 AM 66.5°F19.2°C 62.6°F17.0°C 87% Calm Calm -- 29.82 in1009.8 mb - 0.00 in0.0 mm 0.00 in0.0 mm
04:50 AM 66.3°F19.1°C 62.3°F16.8°C 87% Calm Calm -- 29.82 in1009.8 mb - 0.00 in0.0 mm 0.00 in0.0 mm
05:00 AM 66.2°F19.0°C 62.6°F17.0°C 88% Calm Calm -- 29.82 in1009.8 mb - 0.00 in0.0 mm 0.00 in0.0 mm
05:10 AM 66.2°F19.0°C 62.9°F17.2°C 89% Calm Calm -- 29.82 in1009.8 mb - 0.00 in0.0 mm 0.00 in0.0 mm
05:20 AM 66.0°F18.9°C 62.6°F17.0°C 89% Calm Calm -- 29.83 in1010.2 mb - 0.00 in0.0 mm 0.00 in0.0 mm
05:30 AM 65.7°F18.7°C 62.7°F17.1°C 90% Calm Calm -- 29.83 in1010.2 mb - 0.00 in0.0 mm 0.00 in0.0 mm
05:40 AM 65.6°F18.7°C 62.9°F17.2°C 91% Calm Calm -- 29.83 in1010.2 mb - 0.00 in0.0 mm 0.00 in0.0 mm
05:50 AM 65.5°F18.6°C 62.8°F17.1°C 91% Calm Calm -- 29.83 in1010.2 mb - 0.00 in0.0 mm 0.00 in0.0 mm
06:00 AM 65.4°F18.6°C 63.3°F17.4°C 93% Calm Calm -- 29.84 in1010.5 mb - 0.00 in0.0 mm 0.00 in0.0 mm
06:10 AM 65.8°F18.8°C 64.0°F17.8°C 94% Calm Calm -- 29.84 in1010.5 mb - 0.00 in0.0 mm 0.00 in0.0 mm
06:20 AM 66.0°F18.9°C 64.2°F17.9°C 94% Calm Calm -- 29.84 in1010.5 mb - 0.00 in0.0 mm 0.00 in0.0 mm
06:30 AM 66.1°F18.9°C 64.3°F17.9°C 94% Calm Calm -- 29.84 in1010.5 mb - 0.00 in0.0 mm 0.00 in0.0 mm
06:40 AM 66.5°F19.2°C 65.0°F18.3°C 95% Calm Calm -- 29.84 in1010.5 mb - 0.00 in0.0 mm 0.00 in0.0 mm
06:50 AM 67.0°F19.4°C 65.5°F18.6°C 95% Calm Calm -- 29.84 in1010.5 mb - 0.00 in0.0 mm 0.00 in0.0 mm
07:00 AM 67.5°F19.7°C 66.0°F18.9°C 95% Calm Calm -- 29.85 in1010.8 mb - 0.00 in0.0 mm 0.00 in0.0 mm
07:10 AM 68.0°F20.0°C 66.5°F19.2°C 95% Calm Calm -- 29.85 in1010.8 mb - 0.00 in0.0 mm 0.00 in0.0 mm
07:20 AM 68.9°F20.5°C 67.7°F19.8°C 96% Calm Calm -- 29.85 in1010.8 mb - 0.00 in0.0 mm 0.00 in0.0 mm
07:30 AM 69.7°F20.9°C 68.2°F20.1°C 95% Calm Calm -- 29.85 in1010.8 mb - 0.00 in0.0 mm 0.00 in0.0 mm
07:40 AM 70.4°F21.3°C 68.6°F20.3°C 94% Calm Calm -- 29.85 in1010.8 mb - 0.00 in0.0 mm 0.00 in0.0 mm
07:50 AM 71.4°F21.9°C 69.2°F20.7°C 93% Calm Calm -- 29.85 in1010.8 mb - 0.00 in0.0 mm 0.00 in0.0 mm
08:00 AM 72.4°F22.4°C 69.3°F20.7°C 90% Calm Calm -- 29.85 in1010.8 mb - 0.00 in0.0 mm 0.00 in0.0 mm
08:10 AM 74.1°F23.4°C 69.9°F21.1°C 87% Calm Calm -- 29.85 in1010.8 mb - 0.00 in0.0 mm 0.00 in0.0 mm
08:20 AM 75.5°F24.2°C 70.3°F21.3°C 84% Calm Calm -- 29.85 in1010.8 mb - 0.00 in0.0 mm 0.00 in0.0 mm
08:30 AM 76.9°F24.9°C 69.9°F21.1°C 79% Calm Calm -- 29.85 in1010.8 mb - 0.00 in0.0 mm 0.00 in0.0 mm
08:40 AM 78.1°F25.6°C 70.6°F21.4°C 78% 1.6 mph SE2.6 kmh SE 2.0 mph3.2 kmh 29.85 in1010.8 mb - 0.00 in0.0 mm 0.00 in0.0 mm
08:50 AM 79.0°F26.1°C 70.4°F21.3°C 75% 1.4 mph SE2.3 kmh SE 4.0 mph6.4 kmh 29.85 in1010.8 mb - 0.00 in0.0 mm 0.00 in0.0 mm
09:00 AM 79.6°F26.4°C 70.6°F21.4°C 74% 1.4 mph N2.3 kmh N -- 29.85 in1010.8 mb - 0.00 in0.0 mm 0.00 in0.0 mm
09:10 AM 79.5°F26.4°C 71.3°F21.8°C 76% 1.9 mph N3.1 kmh N 4.0 mph6.4 kmh 29.85 in1010.8 mb - 0.00 in0.0 mm 0.00 in0.0 mm
09:20 AM 80.4°F26.9°C 71.4°F21.9°C 74% 0.3 mph NNW0.5 kmh NNW -- 29.84 in1010.5 mb - 0.00 in0.0 mm 0.00 in0.0 mm
09:30 AM 80.8°F27.1°C 71.8°F22.1°C 74% 0.7 mph NW1.1 kmh NW 4.0 mph6.4 kmh 29.84 in1010.5 mb - 0.00 in0.0 mm 0.00 in0.0 mm
09:40 AM 81.2°F27.3°C 70.9°F21.6°C 71% Calm Calm -- 29.84 in1010.5 mb - 0.00 in0.0 mm 0.00 in0.0 mm
09:50 AM 80.7°F27.1°C 71.6°F22.0°C 74% 5.7 mph NNW9.2 kmh NNW 8.0 mph12.9 kmh 29.84 in1010.5 mb - 0.00 in0.0 mm 0.00 in0.0 mm
10:00 AM 80.2°F26.8°C 71.5°F21.9°C 75% Calm Calm -- 29.84 in1010.5 mb - 0.00 in0.0 mm 0.00 in0.0 mm
10:10 AM 79.9°F26.6°C 72.0°F22.2°C 77% 4.9 mph N7.9 kmh N 8.0 mph12.9 kmh 29.84 in1010.5 mb - 0.00 in0.0 mm 0.00 in0.0 mm
10:20 AM 79.6°F26.4°C 71.4°F21.9°C 76% 3.2 mph N5.1 kmh N 4.0 mph6.4 kmh 29.84 in1010.5 mb - 0.00 in0.0 mm 0.00 in0.0 mm
10:30 AM 78.8°F26.0°C 71.4°F21.9°C 78% 2.2 mph NNW3.5 kmh NNW 9.0 mph14.5 kmh 29.84 in1010.5 mb - 0.00 in0.0 mm 0.00 in0.0 mm
10:40 AM 78.9°F26.1°C 71.4°F21.9°C 78% 5.4 mph NE8.7 kmh NE 8.0 mph12.9 kmh 29.83 in1010.2 mb - 0.00 in0.0 mm 0.00 in0.0 mm
10:50 AM 80.4°F26.9°C 72.9°F22.7°C 78% 1.5 mph NE2.4 kmh NE -- 29.83 in1010.2 mb - 0.00 in0.0 mm 0.00 in0.0 mm
11:00 AM 81.6°F27.6°C 72.5°F22.5°C 74% 4.8 mph NNE7.7 kmh NNE 7.0 mph11.3 kmh 29.83 in1010.2 mb - 0.00 in0.0 mm 0.00 in0.0 mm
11:10 AM 82.4°F28.0°C 72.8°F22.7°C 73% 0.8 mph NE1.3 kmh NE -- 29.83 in1010.2 mb - 0.00 in0.0 mm 0.00 in0.0 mm
11:20 AM 83.4°F28.6°C 73.0°F22.8°C 71% 2.6 mph NNE4.2 kmh NNE 5.0 mph8.0 kmh 29.83 in1010.2 mb - 0.00 in0.0 mm 0.00 in0.0 mm
11:30 AM 82.5°F28.1°C 72.1°F22.3°C 71% 2.1 mph NE3.4 kmh NE 5.0 mph8.0 kmh 29.83 in1010.2 mb - 0.00 in0.0 mm 0.00 in0.0 mm
11:40 AM 81.7°F27.6°C 71.4°F21.9°C 71% 3.5 mph ENE5.6 kmh ENE 5.0 mph8.0 kmh 29.82 in1009.8 mb - 0.00 in0.0 mm 0.00 in0.0 mm
11:50 AM 82.2°F27.9°C 71.9°F22.2°C 71% 2.9 mph NE4.7 kmh NE 7.0 mph11.3 kmh 29.82 in1009.8 mb - 0.00 in0.0 mm 0.00 in0.0 mm
12:00 PM 82.8°F28.2°C 72.0°F22.2°C 70% 5.3 mph NNE8.5 kmh NNE 9.0 mph14.5 kmh 29.82 in1009.8 mb - 0.00 in0.0 mm 0.00 in0.0 mm
12:10 PM 82.6°F28.1°C 72.2°F22.3°C 71% 3.8 mph N6.1 kmh N 7.0 mph11.3 kmh 29.82 in1009.8 mb - 0.00 in0.0 mm 0.00 in0.0 mm
12:20 PM 83.0°F28.3°C 72.2°F22.3°C 70% 3.5 mph NE5.6 kmh NE 10.0 mph16.1 kmh 29.82 in1009.8 mb - 0.00 in0.0 mm 0.00 in0.0 mm
12:30 PM 84.1°F28.9°C 72.9°F22.7°C 69% 3.2 mph NE5.1 kmh NE 10.0 mph16.1 kmh 29.81 in1009.5 mb - 0.00 in0.0 mm 0.00 in0.0 mm
12:40 PM 84.5°F29.2°C 71.4°F21.9°C 65% 6.7 mph NE10.8 kmh NE 11.0 mph17.7 kmh 29.81 in1009.5 mb - 0.00 in0.0 mm 0.00 in0.0 mm
12:50 PM 84.7°F29.3°C 71.6°F22.0°C 65% 3.7 mph NE6.0 kmh NE 10.0 mph16.1 kmh 29.81 in1009.5 mb - 0.00 in0.0 mm 0.00 in0.0 mm
01:00 PM 85.0°F29.4°C 71.9°F22.2°C 65% 7.1 mph ENE11.4 kmh ENE 10.0 mph16.1 kmh 29.81 in1009.5 mb - 0.00 in0.0 mm 0.00 in0.0 mm
01:10 PM 84.8°F29.3°C 71.2°F21.8°C 64% 5.1 mph E8.2 kmh E 9.0 mph14.5 kmh 29.80 in1009.1 mb - 0.00 in0.0 mm 0.00 in0.0 mm
01:20 PM 84.2°F29.0°C 70.7°F21.5°C 64% 6.9 mph NE11.1 kmh NE 11.0 mph17.7 kmh 29.80 in1009.1 mb - 0.00 in0.0 mm 0.00 in0.0 mm
01:30 PM 85.2°F29.6°C 70.7°F21.5°C 62% 6.0 mph ENE9.7 kmh ENE 10.0 mph16.1 kmh 29.80 in1009.1 mb - 0.00 in0.0 mm 0.00 in0.0 mm
01:40 PM 85.7°F29.8°C 71.6°F22.0°C 63% 3.6 mph NE5.8 kmh NE 11.0 mph17.7 kmh 29.80 in1009.1 mb - 0.00 in0.0 mm 0.00 in0.0 mm
01:50 PM 85.9°F29.9°C 71.4°F21.9°C 62% 3.5 mph E5.6 kmh E 13.0 mph20.9 kmh 29.79 in1008.8 mb - 0.00 in0.0 mm 0.00 in0.0 mm
02:00 PM 85.2°F29.6°C 70.7°F21.5°C 62% 5.1 mph ENE8.2 kmh ENE 10.0 mph16.1 kmh 29.79 in1008.8 mb - 0.00 in0.0 mm 0.00 in0.0 mm
02:10 PM 86.1°F30.1°C 71.1°F21.7°C 61% 7.4 mph E11.9 kmh E 11.0 mph17.7 kmh 29.79 in1008.8 mb - 0.00 in0.0 mm 0.00 in0.0 mm
02:20 PM 86.6°F30.3°C 71.6°F22.0°C 61% 5.0 mph NE8.0 kmh NE 13.0 mph20.9 kmh 29.79 in1008.8 mb - 0.00 in0.0 mm 0.00 in0.0 mm
02:30 PM 86.7°F30.4°C 70.1°F21.2°C 58% 7.5 mph ENE12.1 kmh ENE 13.0 mph20.9 kmh 29.78 in1008.5 mb - 0.00 in0.0 mm 0.00 in0.0 mm
02:40 PM 86.5°F30.3°C 70.0°F21.1°C 58% 4.6 mph ENE7.4 kmh ENE 8.0 mph12.9 kmh 29.78 in1008.5 mb - 0.00 in0.0 mm 0.00 in0.0 mm
02:50 PM 86.7°F30.4°C 69.7°F20.9°C 57% 5.5 mph ENE8.9 kmh ENE 10.0 mph16.1 kmh 29.78 in1008.5 mb - 0.00 in0.0 mm 0.00 in0.0 mm
03:00 PM 87.2°F30.7°C 69.6°F20.9°C 56% 3.1 mph NE5.0 kmh NE 11.0 mph17.7 kmh 29.78 in1008.5 mb - 0.00 in0.0 mm 0.00 in0.0 mm
03:10 PM 87.5°F30.8°C 69.4°F20.8°C 55% 6.1 mph NE9.8 kmh NE 9.0 mph14.5 kmh 29.78 in1008.5 mb - 0.00 in0.0 mm 0.00 in0.0 mm
03:20 PM 86.1°F30.1°C 69.0°F20.6°C 57% 3.1 mph E5.0 kmh E 4.0 mph6.4 kmh 29.78 in1008.5 mb - 0.00 in0.0 mm 0.00 in0.0 mm
03:30 PM 87.2°F30.7°C 70.1°F21.2°C 57% 1.7 mph NE2.7 kmh NE 8.0 mph12.9 kmh 29.77 in1008.1 mb - 0.00 in0.0 mm 0.00 in0.0 mm
03:40 PM 87.2°F30.7°C 69.6°F20.9°C 56% 8.2 mph E13.2 kmh E 10.0 mph16.1 kmh 29.77 in1008.1 mb - 0.00 in0.0 mm 0.00 in0.0 mm
03:50 PM 86.9°F30.5°C 68.8°F20.4°C 55% 0.1 mph E0.2 kmh E -- 29.77 in1008.1 mb - 0.00 in0.0 mm 0.00 in0.0 mm
04:00 PM 86.5°F30.3°C 68.4°F20.2°C 55% 3.7 mph NE6.0 kmh NE 9.0 mph14.5 kmh 29.77 in1008.1 mb - 0.00 in0.0 mm 0.00 in0.0 mm
04:10 PM 85.6°F29.8°C 69.6°F20.9°C 59% 3.1 mph ENE5.0 kmh ENE 10.0 mph16.1 kmh 29.77 in1008.1 mb - 0.00 in0.0 mm 0.00 in0.0 mm
04:20 PM 84.5°F29.2°C 70.1°F21.2°C 62% 4.0 mph NE6.4 kmh NE 7.0 mph11.3 kmh 29.77 in1008.1 mb - 0.00 in0.0 mm 0.00 in0.0 mm
04:30 PM 83.9°F28.8°C 70.4°F21.3°C 64% Calm Calm -- 29.77 in1008.1 mb - 0.00 in0.0 mm 0.00 in0.0 mm
04:40 PM 83.2°F28.4°C 70.6°F21.4°C 66% 7.4 mph ENE11.9 kmh ENE 9.0 mph14.5 kmh 29.77 in1008.1 mb - 0.00 in0.0 mm 0.00 in0.0 mm
04:50 PM 83.5°F28.6°C 71.0°F21.7°C 66% Calm Calm 3.0 mph4.8 kmh 29.77 in1008.1 mb - 0.00 in0.0 mm 0.00 in0.0 mm
05:00 PM 84.3°F29.1°C 70.3°F21.3°C 63% 4.6 mph ENE7.4 kmh ENE 10.0 mph16.1 kmh 29.76 in1007.8 mb - 0.00 in0.0 mm 0.00 in0.0 mm
05:10 PM 84.2°F29.0°C 70.2°F21.2°C 63% 1.7 mph NE2.7 kmh NE 5.0 mph8.0 kmh 29.76 in1007.8 mb - 0.00 in0.0 mm 0.00 in0.0 mm
05:20 PM 83.8°F28.8°C 70.3°F21.3°C 64% 4.1 mph NE6.6 kmh NE 8.0 mph12.9 kmh 29.76 in1007.8 mb - 0.00 in0.0 mm 0.00 in0.0 mm
05:30 PM 83.7°F28.7°C 70.2°F21.2°C 64% 2.2 mph NE3.5 kmh NE 10.0 mph16.1 kmh 29.77 in1008.1 mb - 0.00 in0.0 mm 0.00 in0.0 mm
05:40 PM 83.4°F28.6°C 69.9°F21.1°C 64% 3.3 mph NE5.3 kmh NE 6.0 mph9.7 kmh 29.77 in1008.1 mb - 0.00 in0.0 mm 0.00 in0.0 mm
05:50 PM 83.2°F28.4°C 68.8°F20.4°C 62% Calm Calm -- 29.77 in1008.1 mb - 0.00 in0.0 mm 0.00 in0.0 mm
06:00 PM 83.0°F28.3°C 69.1°F20.6°C 63% 1.9 mph ENE3.1 kmh ENE 5.0 mph8.0 kmh 29.77 in1008.1 mb - 0.00 in0.0 mm 0.00 in0.0 mm
06:10 PM 81.9°F27.7°C 68.9°F20.5°C 65% 0.1 mph ENE0.2 kmh ENE -- 29.77 in1008.1 mb - 0.00 in0.0 mm 0.00 in0.0 mm
06:20 PM 81.2°F27.3°C 69.2°F20.7°C 67% Calm Calm 1.0 mph1.6 kmh 29.77 in1008.1 mb - 0.00 in0.0 mm 0.00 in0.0 mm
06:30 PM 80.6°F27.0°C 69.1°F20.6°C 68% 0.3 mph ENE0.5 kmh ENE 5.0 mph8.0 kmh 29.77 in1008.1 mb - 0.00 in0.0 mm 0.00 in0.0 mm
06:40 PM 80.3°F26.8°C 69.2°F20.7°C 69% Calm Calm -- 29.77 in1008.1 mb - 0.00 in0.0 mm 0.00 in0.0 mm
06:50 PM 80.1°F26.7°C 68.6°F20.3°C 68% Calm Calm -- 29.78 in1008.5 mb - 0.00 in0.0 mm 0.00 in0.0 mm
07:00 PM 79.7°F26.5°C 68.6°F20.3°C 69% Calm Calm -- 29.78 in1008.5 mb - 0.00 in0.0 mm 0.00 in0.0 mm
07:10 PM 78.9°F26.1°C 69.9°F21.1°C 74% 5.5 mph SSW8.9 kmh SSW 9.0 mph14.5 kmh 29.79 in1008.8 mb - 0.00 in0.0 mm 0.00 in0.0 mm
07:20 PM 77.5°F25.3°C 70.4°F21.3°C 79% 0.5 mph SSW0.8 kmh SSW -- 29.79 in1008.8 mb - 0.00 in0.0 mm 0.00 in0.0 mm
07:30 PM 76.5°F24.7°C 70.6°F21.4°C 82% 3.8 mph SW6.1 kmh SW 7.0 mph11.3 kmh 29.80 in1009.1 mb - 0.00 in0.0 mm 0.00 in0.0 mm
07:40 PM 75.8°F24.3°C 70.6°F21.4°C 84% Calm Calm 2.0 mph3.2 kmh 29.80 in1009.1 mb - 0.00 in0.0 mm 0.00 in0.0 mm
07:50 PM 75.3°F24.1°C 70.5°F21.4°C 85% 3.4 mph S5.5 kmh S 5.0 mph8.0 kmh 29.80 in1009.1 mb - 0.00 in0.0 mm 0.00 in0.0 mm
08:00 PM 74.8°F23.8°C 70.3°F21.3°C 86% 2.8 mph S4.5 kmh S 6.0 mph9.7 kmh 29.81 in1009.5 mb - 0.00 in0.0 mm 0.00 in0.0 mm
08:10 PM 74.3°F23.5°C 69.1°F20.6°C 84% 3.7 mph SSW6.0 kmh SSW 8.0 mph12.9 kmh 29.81 in1009.5 mb - 0.00 in0.0 mm 0.00 in0.0 mm
08:20 PM 73.9°F23.3°C 68.8°F20.4°C 84% Calm Calm -- 29.81 in1009.5 mb - 0.00 in0.0 mm 0.00 in0.0 mm
08:30 PM 73.6°F23.1°C 68.5°F20.3°C 84% Calm Calm -- 29.81 in1009.5 mb - 0.00 in0.0 mm 0.00 in0.0 mm
08:40 PM 73.4°F23.0°C 68.6°F20.3°C 85% Calm Calm -- 29.81 in1009.5 mb - 0.00 in0.0 mm 0.00 in0.0 mm
08:50 PM 73.1°F22.8°C 68.3°F20.2°C 85% Calm Calm -- 29.81 in1009.5 mb - 0.00 in0.0 mm 0.00 in0.0 mm
09:00 PM 72.9°F22.7°C 68.1°F20.1°C 85% Calm Calm -- 29.81 in1009.5 mb - 0.00 in0.0 mm 0.00 in0.0 mm
09:10 PM 72.7°F22.6°C 68.3°F20.2°C 86% Calm Calm -- 29.82 in1009.8 mb - 0.00 in0.0 mm 0.00 in0.0 mm
09:20 PM 72.4°F22.4°C 68.4°F20.2°C 87% Calm Calm -- 29.82 in1009.8 mb - 0.00 in0.0 mm 0.00 in0.0 mm
09:30 PM 72.2°F22.3°C 67.7°F19.8°C 86% Calm Calm -- 29.82 in1009.8 mb - 0.00 in0.0 mm 0.00 in0.0 mm
09:40 PM 71.8°F22.1°C 67.7°F19.8°C 87% Calm Calm -- 29.82 in1009.8 mb - 0.00 in0.0 mm 0.00 in0.0 mm
09:50 PM 71.4°F21.9°C 67.3°F19.6°C 87% Calm Calm -- 29.82 in1009.8 mb - 0.00 in0.0 mm 0.00 in0.0 mm
10:00 PM 70.9°F21.6°C 66.8°F19.3°C 87% Calm Calm -- 29.83 in1010.2 mb - 0.00 in0.0 mm 0.00 in0.0 mm
10:10 PM 70.5°F21.4°C 66.8°F19.3°C 88% Calm Calm -- 29.83 in1010.2 mb - 0.00 in0.0 mm 0.00 in0.0 mm
10:20 PM 70.1°F21.2°C 66.4°F19.1°C 88% Calm Calm -- 29.83 in1010.2 mb - 0.00 in0.0 mm 0.00 in0.0 mm
10:30 PM 69.9°F21.1°C 66.5°F19.2°C 89% Calm Calm -- 29.83 in1010.2 mb - 0.00 in0.0 mm 0.00 in0.0 mm
10:40 PM 69.6°F20.9°C 66.2°F19.0°C 89% Calm Calm -- 29.83 in1010.2 mb - 0.00 in0.0 mm 0.00 in0.0 mm
10:50 PM 69.3°F20.7°C 65.9°F18.8°C 89% Calm Calm -- 29.83 in1010.2 mb - 0.00 in0.0 mm 0.00 in0.0 mm
11:00 PM 69.1°F20.6°C 65.7°F18.7°C 89% Calm Calm -- 29.83 in1010.2 mb - 0.00 in0.0 mm 0.00 in0.0 mm
11:10 PM 68.9°F20.5°C 65.5°F18.6°C 89% Calm Calm -- 29.83 in1010.2 mb - 0.00 in0.0 mm 0.00 in0.0 mm
11:20 PM 68.7°F20.4°C 65.3°F18.5°C 89% Calm Calm -- 29.83 in1010.2 mb - 0.00 in0.0 mm 0.00 in0.0 mm
11:30 PM 68.5°F20.3°C 65.1°F18.4°C 89% Calm Calm -- 29.83 in1010.2 mb - 0.00 in0.0 mm 0.00 in0.0 mm
11:40 PM 68.2°F20.1°C 65.2°F18.4°C 90% Calm Calm -- 29.83 in1010.2 mb - 0.00 in0.0 mm 0.00 in0.0 mm
11:50 PM 68.0°F20.0°C 65.0°F18.3°C 90% Calm Calm -- 29.83 in1010.2 mb - 0.00 in0.0 mm 0.00 in0.0 mm